Time;durP1;ratioP1;P1;durP2;ratioP2;P2;SDS_P1;SDS_P2;PMS_P1;PMS_P2;Temp;Humidity;BMP_temperature;BMP_pressure;BME280_temperature;BME280_humidity;BME280_pressure;Samples;Min_cycle;Max_cycle;Signal;HPM_P1;HPM_P2
2023/03/01 00:01:21;;;;;;;1.37;1.27;;;;;;;8.00;47.50;100958.16;4461304;32;33185;-84
2023/03/01 00:03:49;;;;;;;0.45;0.45;;;;;;;8.00;47.62;100963.44;4475125;32;33713;-84
2023/03/01 00:06:17;;;;;;;0.60;0.60;;;;;;;7.98;48.32;100960.84;4460546;32;34032;-84
2023/03/01 00:08:45;;;;;;;0.68;0.68;;;;;;;8.15;47.70;100948.28;4474105;32;33047;-84
2023/03/01 00:11:22;;;;;;;1.73;1.62;;;;;;;8.29;47.33;100950.69;4477445;32;34213;-84
2023/03/01 00:13:53;;;;;;;1.10;1.10;;;;;;;8.12;48.44;100956.25;4469558;32;34359;-84
2023/03/01 00:16:30;;;;;;;1.33;1.23;;;;;;;8.20;47.51;100950.84;4461741;32;32848;-84
2023/03/01 00:18:58;;;;;;;0.37;0.37;;;;;;;8.32;47.33;100955.91;4463432;32;32765;-83
2023/03/01 00:21:26;;;;;;;0.43;0.43;;;;;;;8.17;47.99;100951.78;4448263;32;32978;-84
2023/03/01 00:23:54;;;;;;;1.00;1.00;;;;;;;8.33;47.37;100951.53;4476719;32;34009;-84
2023/03/01 00:26:24;;;;;;;0.73;0.73;;;;;;;8.36;47.07;100962.91;4456622;32;32240;-82
2023/03/01 00:28:52;;;;;;;1.65;1.10;;;;;;;8.15;47.38;100957.94;4469716;32;32604;-82
2023/03/01 00:31:21;;;;;;;0.10;0.10;;;;;;;8.20;46.98;100961.38;4455161;32;33032;-82
2023/03/01 00:33:52;;;;;;;0.45;0.30;;;;;;;8.29;47.05;100965.63;4458636;32;33312;-82
2023/03/01 00:36:20;;;;;;;1.25;1.20;;;;;;;8.37;46.78;100964.62;4460399;32;33796;-83
2023/03/01 00:38:48;;;;;;;0.30;0.30;;;;;;;8.37;46.84;100975.16;4432036;32;32958;-83
2023/03/01 00:41:17;;;;;;;1.48;1.37;;;;;;;8.27;46.96;100963.03;4475830;32;34559;-83
2023/03/01 00:43:45;;;;;;;0.15;0.15;;;;;;;8.31;47.34;100959.44;4460765;32;33509;-83
2023/03/01 00:46:19;;;;;;;0.93;0.93;;;;;;;8.34;47.04;100959.37;4447604;32;33486;-83
2023/03/01 00:48:47;;;;;;;1.48;1.37;;;;;;;8.50;46.37;100961.78;4461438;32;32957;-83
2023/03/01 00:51:16;;;;;;;4.53;0.65;;;;;;;8.52;46.14;100955.63;4456061;32;32689;-83
2023/03/01 00:53:44;;;;;;;0.88;0.70;;;;;;;8.30;46.60;100955.06;4467772;32;34218;-83
2023/03/01 00:56:14;;;;;;;5.22;0.82;;;;;;;8.56;45.89;100945.91;4460774;32;33370;-83
2023/03/01 00:58:41;;;;;;;0.73;0.73;;;;;;;8.79;45.37;100946.38;4461196;32;31808;-84
2023/03/01 01:01:18;;;;;;;2.10;1.45;;;;;;;8.67;45.47;100946.59;4455345;32;33149;-83
2023/03/01 01:03:52;;;;;;;0.00;0.00;;;;;;;8.70;45.25;100946.53;4463704;32;34705;-83
2023/03/01 01:06:23;;;;;;;1.08;1.08;;;;;;;8.15;46.42;100950.03;4470854;32;33809;-83
2023/03/01 01:08:52;;;;;;;0.57;0.57;;;;;;;8.60;45.25;100943.22;4473722;32;33355;-85
2023/03/01 01:11:21;;;;;;;0.20;0.20;;;;;;;8.32;46.47;100944.53;4465285;32;35726;-84
2023/03/01 01:13:49;;;;;;;0.00;0.00;;;;;;;8.20;46.99;100938.56;4477644;32;33980;-84
2023/03/01 01:16:19;;;;;;;0.75;0.75;;;;;;;8.45;45.92;100936.44;4461334;32;33351;-84
2023/03/01 01:18:46;;;;;;;0.15;0.15;;;;;;;8.36;46.11;100935.69;4470730;32;33096;-84
2023/03/01 01:21:16;;;;;;;1.12;1.12;;;;;;;8.45;45.96;100935.53;4459167;32;33282;-84
2023/03/01 01:23:45;;;;;;;5.18;1.15;;;;;;;8.52;45.64;100931.06;4469906;32;33671;-84
2023/03/01 01:26:18;;;;;;;2.10;0.73;;;;;;;8.54;45.58;100924.87;4461327;32;34172;-84
2023/03/01 01:28:46;;;;;;;0.65;0.65;;;;;;;8.62;45.49;100924.75;4464044;32;33056;-84
2023/03/01 01:31:15;;;;;;;1.45;1.35;;;;;;;8.39;46.13;100914.59;4463749;32;34351;-85
2023/03/01 01:33:43;;;;;;;1.58;1.33;;;;;;;8.49;45.76;100915.31;4463294;32;34785;-84
2023/03/01 01:36:11;;;;;;;0.05;0.05;;;;;;;8.42;46.01;100912.78;4463637;32;33639;-84
2023/03/01 01:38:39;;;;;;;0.32;0.32;;;;;;;8.20;46.53;100908.75;4462115;32;32668;-84
2023/03/01 01:41:06;;;;;;;2.60;1.67;;;;;;;8.31;46.40;100911.19;4461858;32;32646;-83
2023/03/01 01:43:37;;;;;;;0.85;0.68;;;;;;;8.16;46.70;100912.31;4462225;32;34403;-83
2023/03/01 01:46:32;;;;;;;4.12;2.30;;;;;;;8.51;45.78;100903.88;4464893;32;34193;-83
2023/03/01 01:49:17;;;;;;;1.27;1.17;;;;;;;8.38;46.15;100897.94;4456216;32;33084;-83
2023/03/01 01:51:48;;;;;;;0.75;0.75;;;;;;;8.15;46.84;100903.56;4458370;32;32859;-82
2023/03/01 01:54:29;;;;;;;2.75;0.80;;;;;;;7.85;48.03;100899.66;4465160;32;32691;-82
2023/03/01 01:57:01;;;;;;;0.05;0.05;;;;;;;8.02;48.13;100902.00;4462433;32;33135;-83
2023/03/01 01:59:30;;;;;;;0.47;0.47;;;;;;;8.31;47.41;100893.66;4460878;32;33265;-83
2023/03/01 02:01:59;;;;;;;0.40;0.40;;;;;;;8.34;47.28;100896.22;4462389;32;33959;-82
2023/03/01 02:04:29;;;;;;;1.27;0.75;;;;;;;8.79;45.53;100888.44;4468244;32;34683;-82
2023/03/01 02:07:29;;;;;;;1.45;1.35;;;;;;;8.70;45.93;100884.22;4484866;32;34186;-83
2023/03/01 02:09:57;;;;;;;0.60;0.60;;;;;;;8.72;46.12;100885.03;4443642;32;33128;-83
2023/03/01 02:12:25;;;;;;;1.33;0.43;;;;;;;8.63;45.92;100877.31;4462520;32;34255;-82
2023/03/01 02:14:53;;;;;;;2.83;1.35;;;;;;;8.39;46.76;100877.75;4457561;32;33890;-83
2023/03/01 02:17:21;;;;;;;0.85;0.85;;;;;;;8.50;46.64;100875.81;4456909;32;34604;-83
2023/03/01 02:20:07;;;;;;;0.45;0.45;;;;;;;8.26;47.08;100881.47;4461709;32;32357;-82
2023/03/01 02:22:36;;;;;;;0.10;0.10;;;;;;;7.93;47.88;100895.16;4473612;32;32461;-84
2023/03/01 02:25:09;;;;;;;0.65;0.65;;;;;;;7.97;47.76;100895.94;4453013;32;33021;-83
2023/03/01 02:28:02;;;;;;;0.03;0.03;;;;;;;8.31;46.93;100883.12;4450159;32;32736;-83
2023/03/01 02:30:30;;;;;;;;;;;;;;;8.17;47.18;100885.13;4470379;32;32840;-84
2023/03/01 02:33:02;;;;;;;0.28;0.28;;;;;;;7.88;47.93;100880.31;4464027;32;33705;-84
2023/03/01 02:35:39;;;;;;;0.30;0.30;;;;;;;8.02;47.61;100872.22;4461377;32;33179;-84
2023/03/01 02:38:08;;;;;;;0.15;0.15;;;;;;;8.05;47.58;100873.03;4470106;32;32262;-84
2023/03/01 02:40:37;;;;;;;1.27;0.88;;;;;;;7.74;48.26;100880.53;4477793;32;33291;-84
2023/03/01 02:43:09;;;;;;;0.98;0.98;;;;;;;7.81;48.40;100874.28;4463078;32;33543;-84
2023/03/01 02:45:36;;;;;;;0.33;0.33;;;;;;;7.81;48.66;100868.16;4461486;32;33995;-84
2023/03/01 02:48:04;;;;;;;3.80;0.85;;;;;;;7.84;48.52;100870.75;4462513;32;33662;-83
2023/03/01 02:50:47;;;;;;;2.08;0.70;;;;;;;7.57;49.39;100864.16;4479297;32;33002;-82
2023/03/01 02:53:22;;;;;;;9.25;1.92;;;;;;;7.82;49.09;100862.88;4470012;32;32936;-83
2023/03/01 02:55:50;;;;;;;1.62;1.52;;;;;;;7.88;48.88;100861.91;4456957;32;33207;-84
2023/03/01 02:58:17;;;;;;;0.68;0.32;;;;;;;8.15;48.46;100868.50;4457257;32;34281;-84
2023/03/01 03:00:46;;;;;;;1.95;1.75;;;;;;;8.04;48.29;100860.78;4459772;32;32967;-84
2023/03/01 03:03:17;;;;;;;0.30;0.30;;;;;;;8.16;48.09;100850.03;4462174;32;33222;-83
2023/03/01 03:05:45;;;;;;;0.75;0.75;;;;;;;8.03;48.34;100858.19;4465310;32;32293;-83
2023/03/01 03:08:12;;;;;;;0.30;0.30;;;;;;;7.81;49.01;100858.50;4463890;32;33202;-84
2023/03/01 03:10:42;;;;;;;0.35;0.35;;;;;;;7.87;49.14;100852.28;4451214;32;32310;-84
2023/03/01 03:13:13;;;;;;;2.20;1.08;;;;;;;8.04;48.61;100855.53;4470380;32;35026;-82
2023/03/01 03:15:41;;;;;;;0.40;0.40;;;;;;;8.13;48.56;100857.13;4475921;32;33253;-83
2023/03/01 03:18:11;;;;;;;2.65;1.17;;;;;;;8.18;48.54;100848.28;4474259;32;34174;-83
2023/03/01 03:20:40;;;;;;;0.20;0.20;;;;;;;8.34;48.26;100848.84;4460469;32;32013;-83
2023/03/01 03:23:08;;;;;;;0.00;0.00;;;;;;;8.28;48.13;100850.75;4462675;32;32603;-83
2023/03/01 03:25:37;;;;;;;0.08;0.08;;;;;;;8.16;48.55;100843.91;4448866;32;34110;-83
2023/03/01 03:28:09;;;;;;;0.22;0.22;;;;;;;8.20;48.52;100837.72;4466148;32;33794;-83
2023/03/01 03:30:41;;;;;;;0.10;0.10;;;;;;;8.04;49.01;100836.25;4474660;32;32924;-83
2023/03/01 03:33:10;;;;;;;0.30;0.30;;;;;;;8.09;49.10;100835.28;4450477;32;33436;-83
2023/03/01 03:35:43;;;;;;;0.62;0.62;;;;;;;8.12;49.05;100834.38;4449754;32;33979;-83
2023/03/01 03:38:18;;;;;;;0.23;0.23;;;;;;;8.18;49.02;100836.87;4450665;32;32863;-83
2023/03/01 03:40:51;;;;;;;1.80;1.02;;;;;;;8.20;48.92;100846.47;4463446;32;34097;-83
2023/03/01 03:43:22;;;;;;;1.45;1.35;;;;;;;8.21;49.16;100839.44;4451047;32;34137;-82
2023/03/01 03:46:09;;;;;;;3.20;1.20;;;;;;;8.29;48.81;100842.81;4471920;32;34446;-83
2023/03/01 03:48:42;;;;;;;0.85;0.85;;;;;;;8.39;48.66;100846.19;4464745;32;33410;-83
2023/03/01 03:51:12;;;;;;;0.35;0.35;;;;;;;8.20;48.95;100842.97;4473822;32;32446;-83
2023/03/01 03:53:40;;;;;;;0.70;0.65;;;;;;;8.28;48.64;100841.06;4469722;32;34510;-83
2023/03/01 03:56:08;;;;;;;0.20;0.20;;;;;;;7.99;49.14;100844.22;4460213;32;34163;-83
2023/03/01 03:58:36;;;;;;;0.50;0.50;;;;;;;7.85;49.78;100846.19;4460795;32;32662;-83
2023/03/01 04:01:05;;;;;;;0.55;0.37;;;;;;;7.91;49.58;100844.31;4470042;32;31821;-83
2023/03/01 04:03:34;;;;;;;0.93;0.93;;;;;;;7.88;49.95;100838.25;4462366;32;33897;-83
2023/03/01 04:06:03;;;;;;;0.45;0.45;;;;;;;8.13;49.37;100842.22;4460269;32;33950;-84
2023/03/01 04:08:31;;;;;;;0.10;0.10;;;;;;;7.84;49.99;100834.81;4476442;32;33810;-84
2023/03/01 04:11:25;;;;;;;3.37;0.90;;;;;;;8.29;49.13;100829.66;4462285;32;34060;-83
2023/03/01 04:13:49;;;;;;;0.93;0.93;;;;;;;8.26;49.00;100829.72;4474682;32;33939;-84
2023/03/01 04:16:17;;;;;;;0.30;0.10;;;;;;;8.10;49.29;100825.59;4473657;31;33212;-84
2023/03/01 04:18:45;;;;;;;0.52;0.52;;;;;;;8.15;49.30;100827.25;4461670;32;33034;-83
2023/03/01 04:21:13;;;;;;;0.52;0.52;;;;;;;8.19;49.51;100834.22;4472680;32;33083;-84
2023/03/01 04:23:41;;;;;;;0.45;0.45;;;;;;;8.19;49.37;100831.59;4464934;32;35437;-83
2023/03/01 04:26:08;;;;;;;0.75;0.75;;;;;;;8.04;49.68;100829.22;4453047;32;32873;-83
2023/03/01 04:28:40;;;;;;;1.12;1.08;;;;;;;8.19;49.48;100835.97;4460600;32;31910;-84
2023/03/01 04:31:13;;;;;;;4.43;0.98;;;;;;;8.22;49.26;100838.56;4458432;32;32458;-83
2023/03/01 04:33:43;;;;;;;2.33;2.20;;;;;;;8.27;49.28;100841.13;4473095;32;33918;-83
2023/03/01 04:36:12;;;;;;;0.40;0.40;;;;;;;8.42;48.72;100836.47;4459089;32;34084;-83
2023/03/01 04:38:40;;;;;;;2.97;0.90;;;;;;;8.20;48.93;100840.34;4465267;32;33186;-83
2023/03/01 04:41:09;;;;;;;0.17;0.17;;;;;;;8.33;48.48;100841.88;4462427;32;33440;-83
2023/03/01 04:43:37;;;;;;;0.32;0.32;;;;;;;7.95;49.51;100840.75;4475090;32;33965;-84
2023/03/01 04:46:09;;;;;;;0.77;0.77;;;;;;;8.15;49.01;100836.91;4477250;32;33902;-83
2023/03/01 04:48:38;;;;;;;0.88;0.88;;;;;;;8.22;48.85;100841.19;4466445;32;32979;-83
2023/03/01 04:51:06;;;;;;;1.27;1.23;;;;;;;7.86;49.25;100835.62;4478078;32;33048;-82
2023/03/01 04:53:35;;;;;;;1.40;0.90;;;;;;;7.52;49.73;100834.44;4467093;32;33147;-82
2023/03/01 04:56:03;;;;;;;0.00;0.00;;;;;;;7.58;49.62;100835.19;4471443;32;33389;-83
2023/03/01 04:58:31;;;;;;;0.85;0.85;;;;;;;7.60;49.88;100832.56;4469361;32;32927;-82
2023/03/01 05:00:59;;;;;;;0.32;0.32;;;;;;;7.67;49.32;100828.94;4447656;32;34444;-82
2023/03/01 05:03:27;;;;;;;1.98;1.80;;;;;;;7.89;48.53;100830.34;4463388;32;34485;-82
2023/03/01 05:05:59;;;;;;;1.95;0.90;;;;;;;7.90;48.69;100837.34;4463417;32;34241;-83
2023/03/01 05:08:27;;;;;;;1.55;1.27;;;;;;;7.34;49.83;100835.56;4467965;32;33576;-83
2023/03/01 05:10:54;;;;;;;0.40;0.40;;;;;;;7.50;49.55;100830.94;4465553;32;32775;-83
2023/03/01 05:13:22;;;;;;;21.17;2.47;;;;;;;7.69;49.08;100835.03;4465997;32;32864;-82
2023/03/01 05:16:00;;;;;;;0.90;0.90;;;;;;;7.84;48.88;100837.44;4465246;32;34774;-83
2023/03/01 05:18:31;;;;;;;1.75;0.85;;;;;;;7.91;48.68;100844.31;4462351;32;33578;-83
2023/03/01 05:21:08;;;;;;;0.70;0.70;;;;;;;8.01;48.80;100844.19;4463388;32;32447;-83
2023/03/01 05:23:36;;;;;;;1.90;1.70;;;;;;;7.93;48.80;100837.28;4475819;32;33091;-83
2023/03/01 05:26:05;;;;;;;3.20;2.90;;;;;;;7.89;48.87;100840.87;4473803;32;34420;-84
2023/03/01 05:28:38;;;;;;;0.35;0.35;;;;;;;8.07;48.56;100841.44;4464426;32;34206;-83
2023/03/01 05:31:09;;;;;;;0.37;0.37;;;;;;;8.01;48.54;100841.53;4465247;32;32097;-84
2023/03/01 05:33:38;;;;;;;0.13;0.13;;;;;;;7.90;48.68;100839.97;4463203;32;32551;-84
2023/03/01 05:36:12;;;;;;;1.67;0.62;;;;;;;8.08;48.64;100830.91;4476197;32;34727;-84
2023/03/01 05:38:39;;;;;;;0.75;0.75;;;;;;;8.05;48.57;100833.59;4464381;32;32429;-83
2023/03/01 05:41:14;;;;;;;0.15;0.15;;;;;;;7.63;49.65;100848.28;4462905;31;32773;-84
2023/03/01 05:43:44;;;;;;;0.47;0.43;;;;;;;7.52;50.01;100830.03;4462302;32;32856;-84
2023/03/01 05:46:13;;;;;;;0.25;0.15;;;;;;;7.55;50.23;100835.25;4478918;31;34907;-84
2023/03/01 05:48:40;;;;;;;0.25;0.25;;;;;;;7.92;49.10;100830.28;4467895;31;33518;-84
2023/03/01 05:51:08;;;;;;;0.10;0.10;;;;;;;7.68;49.82;100828.03;4475851;31;31452;-84
2023/03/01 05:53:36;;;;;;;1.15;0.93;;;;;;;7.92;49.13;100832.91;4454826;31;33356;-84
2023/03/01 05:56:04;;;;;;;0.90;0.90;;;;;;;7.74;49.48;100834.97;4461605;32;33287;-84
2023/03/01 05:58:32;;;;;;;0.17;0.17;;;;;;;7.75;49.67;100836.72;4463184;31;32992;-84
2023/03/01 06:01:00;;;;;;;6.85;5.12;;;;;;;8.14;48.82;100840.44;4465303;32;33163;-83
2023/03/01 06:03:28;;;;;;;0.52;0.52;;;;;;;8.34;48.51;100840.97;4476599;31;33368;-84
2023/03/01 06:05:56;;;;;;;1.45;1.35;;;;;;;8.24;48.73;100846.41;4476469;31;34036;-83
2023/03/01 06:08:26;;;;;;;0.70;0.70;;;;;;;8.24;48.55;100847.28;4460652;32;32797;-83
2023/03/01 06:10:55;;;;;;;1.45;1.35;;;;;;;8.20;48.95;100846.47;4475889;31;32927;-84
2023/03/01 06:13:23;;;;;;;0.13;0.13;;;;;;;8.38;48.28;100852.34;4464967;31;33352;-83
2023/03/01 06:15:51;;;;;;;1.05;0.95;;;;;;;7.88;49.74;100854.00;4453460;32;33129;-85
2023/03/01 06:18:19;;;;;;;0.22;0.22;;;;;;;7.93;49.56;100853.06;4465449;31;33770;-85
2023/03/01 06:20:53;;;;;;;0.30;0.30;;;;;;;8.12;49.44;100847.53;4464152;32;34014;-85
2023/03/01 06:23:22;;;;;;;0.57;0.55;;;;;;;7.84;49.98;100849.72;4466116;31;32425;-85
2023/03/01 06:25:51;;;;;;;2.67;1.42;;;;;;;8.03;49.83;100858.19;4476053;31;34000;-85
2023/03/01 06:28:19;;;;;;;0.00;0.00;;;;;;;8.01;49.44;100859.97;4473610;31;34327;-85
2023/03/01 06:30:47;;;;;;;1.35;1.25;;;;;;;7.94;49.34;100862.69;4464616;31;33873;-85
2023/03/01 06:33:15;;;;;;;0.30;0.30;;;;;;;8.00;49.37;100855.59;4459703;32;32946;-85
2023/03/01 06:35:42;;;;;;;0.70;0.70;;;;;;;8.10;49.40;100865.94;4464090;32;33138;-84
2023/03/01 06:38:14;;;;;;;1.33;0.88;;;;;;;8.18;49.22;100868.44;4478501;31;35818;-84
2023/03/01 06:40:42;;;;;;;1.12;1.10;;;;;;;8.29;48.44;100868.25;4464122;31;32730;-84
2023/03/01 06:43:09;;;;;;;0.55;0.55;;;;;;;8.11;49.13;100866.78;4461127;31;33858;-84
2023/03/01 06:45:37;;;;;;;0.10;0.10;;;;;;;8.06;49.24;100873.91;4450078;32;30934;-84
2023/03/01 06:48:06;;;;;;;7.78;0.90;;;;;;;8.42;48.18;100870.69;4452188;31;33036;-84
2023/03/01 06:50:34;;;;;;;0.68;0.68;;;;;;;8.26;48.76;100866.56;4467744;31;32999;-84
2023/03/01 06:53:03;;;;;;;0.28;0.28;;;;;;;8.43;48.37;100864.53;4452001;31;33860;-84
2023/03/01 06:55:31;;;;;;;1.12;1.12;;;;;;;7.83;50.04;100867.25;4473849;31;34040;-84
2023/03/01 06:58:00;;;;;;;2.95;0.65;;;;;;;8.27;48.73;100870.94;4465994;31;32831;-84
2023/03/01 07:00:28;;;;;;;0.20;0.20;;;;;;;7.88;49.95;100875.94;4460650;32;33824;-84
2023/03/01 07:02:58;;;;;;;0.70;0.70;;;;;;;7.65;50.22;100873.66;4457860;31;31068;-84
2023/03/01 07:05:26;;;;;;;0.52;0.50;;;;;;;7.49;50.85;100874.75;4465087;32;33359;-84
2023/03/01 07:07:55;;;;;;;1.45;1.35;;;;;;;7.76;50.30;100876.12;4466248;31;33056;-83
2023/03/01 07:10:23;;;;;;;1.02;0.88;;;;;;;8.08;49.39;100877.37;4475182;31;32411;-83
2023/03/01 07:12:50;;;;;;;0.37;0.37;;;;;;;8.10;49.53;100875.59;4467424;31;32936;-83
2023/03/01 07:15:18;;;;;;;0.57;0.57;;;;;;;8.41;48.56;100876.00;4466081;32;33942;-83
2023/03/01 07:17:47;;;;;;;0.47;0.47;;;;;;;7.66;49.83;100869.28;4462702;31;33649;-83
2023/03/01 07:20:15;;;;;;;1.58;1.05;;;;;;;8.09;48.78;100868.59;4472652;31;31883;-82
2023/03/01 07:22:43;;;;;;;0.98;0.98;;;;;;;7.74;49.35;100870.03;4475820;31;34567;-83
2023/03/01 07:25:11;;;;;;;0.30;0.30;;;;;;;7.42;50.32;100871.34;4459790;32;34267;-83
2023/03/01 07:27:38;;;;;;;2.72;2.53;;;;;;;7.18;51.24;100872.53;4456167;32;33725;-83
2023/03/01 07:30:07;;;;;;;0.20;0.20;;;;;;;7.80;50.36;100877.81;4453629;31;33187;-83
2023/03/01 07:32:34;;;;;;;0.95;0.95;;;;;;;7.82;49.84;100883.91;4468562;32;32412;-83
2023/03/01 07:35:02;;;;;;;3.25;1.15;;;;;;;7.99;49.63;100873.12;4462022;31;33936;-83
2023/03/01 07:37:30;;;;;;;0.22;0.22;;;;;;;8.03;49.37;100881.88;4464153;31;33010;-83
2023/03/01 07:39:58;;;;;;;0.80;0.80;;;;;;;8.28;49.24;100874.44;4469249;31;34247;-83
2023/03/01 07:42:25;;;;;;;0.52;0.52;;;;;;;8.47;47.51;100875.88;4456795;31;30927;-83
2023/03/01 07:44:53;;;;;;;1.77;1.08;;;;;;;8.34;48.25;100869.91;4465268;31;33122;-83
2023/03/01 07:47:20;;;;;;;0.45;0.45;;;;;;;8.50;48.11;100867.94;4481278;31;33846;-82
2023/03/01 07:49:48;;;;;;;0.10;0.10;;;;;;;7.86;49.06;100868.97;4454707;32;34604;-82
2023/03/01 07:52:16;;;;;;;1.48;1.37;;;;;;;8.28;48.09;100870.03;4464020;32;33722;-83
2023/03/01 07:54:46;;;;;;;0.17;0.17;;;;;;;8.13;48.90;100860.63;4466909;32;36721;-82
2023/03/01 07:57:13;;;;;;;1.42;0.95;;;;;;;8.24;48.14;100868.34;4453648;32;36052;-82
2023/03/01 07:59:41;;;;;;;0.32;0.28;;;;;;;8.14;48.83;100862.38;4465299;31;32821;-82
2023/03/01 08:02:10;;;;;;;0.10;0.10;;;;;;;8.34;47.47;100864.66;4458700;32;33215;-82
2023/03/01 08:04:38;;;;;;;0.10;0.10;;;;;;;8.35;47.47;100863.75;4464311;32;33531;-83
2023/03/01 08:07:05;;;;;;;0.40;0.40;;;;;;;8.11;48.51;100861.53;4457094;31;33036;-82
2023/03/01 08:09:37;;;;;;;1.55;1.45;;;;;;;8.19;47.93;100859.66;4475088;31;33239;-82
2023/03/01 08:12:05;;;;;;;0.73;0.73;;;;;;;7.95;48.47;100867.06;4461889;32;32409;-82
2023/03/01 08:14:33;;;;;;;4.65;0.57;;;;;;;8.26;48.03;100853.41;4469200;32;34274;-82
2023/03/01 08:17:02;;;;;;;2.60;1.08;;;;;;;8.54;47.11;100855.56;4461836;31;32323;-82
2023/03/01 08:19:30;;;;;;;1.00;1.00;;;;;;;8.10;48.40;100855.41;4455211;31;32332;-82
2023/03/01 08:21:59;;;;;;;0.52;0.52;;;;;;;8.42;47.48;100851.41;4454456;32;34288;-82
2023/03/01 08:24:27;;;;;;;0.82;0.82;;;;;;;8.57;47.17;100855.50;4474500;31;32946;-82
2023/03/01 08:26:55;;;;;;;1.37;0.90;;;;;;;8.67;47.20;100854.44;4454391;31;33387;-82
2023/03/01 08:29:24;;;;;;;0.57;0.57;;;;;;;8.78;47.26;100851.59;4464539;31;33218;-82
2023/03/01 08:31:52;;;;;;;0.20;0.20;;;;;;;8.60;46.86;100842.31;4456212;31;33808;-82
2023/03/01 08:34:20;;;;;;;0.45;0.45;;;;;;;8.62;46.67;100843.13;4455041;31;31954;-82
2023/03/01 08:36:47;;;;;;;0.17;0.17;;;;;;;8.91;45.89;100835.50;4474580;31;33389;-82
2023/03/01 08:39:16;;;;;;;0.10;0.10;;;;;;;9.16;44.83;100840.25;4451723;32;33631;-82
2023/03/01 08:41:44;;;;;;;0.20;0.20;;;;;;;9.05;45.60;100850.19;4461242;32;34534;-82
2023/03/01 08:44:16;;;;;;;0.25;0.25;;;;;;;8.86;46.45;100837.37;4464952;32;33890;-83
2023/03/01 08:46:45;;;;;;;2.85;1.85;;;;;;;8.67;46.28;100850.03;4479547;31;33406;-82
2023/03/01 08:49:18;;;;;;;0.45;0.45;;;;;;;8.76;46.93;100846.34;4464247;31;32968;-82
2023/03/01 08:51:46;;;;;;;0.28;0.28;;;;;;;8.85;46.07;100840.91;4464505;31;36098;-82
2023/03/01 08:54:16;;;;;;;3.65;3.25;;;;;;;8.72;46.28;100839.41;4462103;31;33976;-82
2023/03/01 08:56:44;;;;;;;0.57;0.55;;;;;;;8.89;46.88;100831.19;4461821;32;33013;-83
2023/03/01 08:59:13;;;;;;;0.20;0.20;;;;;;;9.32;45.62;100825.88;4453900;31;32608;-82
2023/03/01 09:01:43;;;;;;;2.37;2.17;;;;;;;9.49;45.43;100815.81;4463675;31;33500;-82
2023/03/01 09:04:11;;;;;;;1.20;1.10;;;;;;;9.82;44.10;100805.34;4466301;31;34206;-82
2023/03/01 09:06:39;;;;;;;0.62;0.60;;;;;;;9.92;44.63;100801.59;4460735;32;33194;-82
2023/03/01 09:09:09;;;;;;;1.10;0.90;;;;;;;9.71;44.96;100796.84;4463804;32;33920;-83
2023/03/01 09:11:37;;;;;;;0.43;0.43;;;;;;;9.47;45.67;100804.44;4450569;32;34362;-82
2023/03/01 09:14:05;;;;;;;0.17;0.17;;;;;;;9.72;45.01;100793.28;4474170;31;31954;-82
2023/03/01 09:16:35;;;;;;;0.17;0.17;;;;;;;9.78;45.14;100792.28;4456133;31;32785;-81
2023/03/01 09:19:04;;;;;;;0.20;0.20;;;;;;;9.51;45.17;100799.09;4469078;31;33523;-81
2023/03/01 09:21:32;;;;;;;0.45;0.45;;;;;;;9.72;44.71;100794.16;4475958;31;32772;-82
2023/03/01 09:24:13;;;;;;;1.20;1.20;;;;;;;9.37;45.54;100792.38;4464964;32;33943;-82
2023/03/01 09:26:41;;;;;;;0.13;0.13;;;;;;;9.25;45.77;100792.63;4461848;32;33674;-82
2023/03/01 09:29:09;;;;;;;0.35;0.35;;;;;;;9.64;45.00;100792.63;4453779;31;33629;-82
2023/03/01 09:31:37;;;;;;;1.05;0.90;;;;;;;10.18;44.55;100781.59;4447773;31;34224;-82
2023/03/01 09:34:05;;;;;;;0.52;0.52;;;;;;;9.99;44.31;100776.78;4462641;31;34283;-81
2023/03/01 09:36:33;;;;;;;0.75;0.75;;;;;;;9.80;45.03;100774.66;4465651;31;33227;-82
2023/03/01 09:39:01;;;;;;;0.37;0.37;;;;;;;10.00;44.12;100778.50;4457444;31;31929;-82
2023/03/01 09:42:01;;;;;;;0.10;0.10;;;;;;;9.86;44.62;100767.44;4464454;32;34574;-82
2023/03/01 09:44:49;;;;;;;3.25;2.17;;;;;;;10.25;43.76;100762.06;4464902;32;32311;-82
2023/03/01 09:47:21;;;;;;;0.60;0.60;;;;;;;10.33;43.45;100759.22;4464483;32;32558;-82
2023/03/01 09:50:02;;;;;;;0.85;0.85;;;;;;;9.85;44.28;100756.94;4464415;31;33477;-82
2023/03/01 09:52:40;;;;;;;1.48;1.42;;;;;;;9.58;45.08;100763.75;4474842;31;34534;-82
2023/03/01 09:55:14;;;;;;;2.37;2.05;;;;;;;10.13;43.79;100752.69;4464267;31;33821;-81
2023/03/01 09:58:06;;;;;;;0.32;0.32;;;;;;;10.21;44.07;100744.56;4461966;31;33849;-82
2023/03/01 10:00:46;;;;;;;0.85;0.85;;;;;;;10.47;43.08;100739.44;4462122;31;33716;-82
2023/03/01 10:03:27;;;;;;;0.10;0.10;;;;;;;9.64;45.89;100742.53;4459015;31;33680;-81
2023/03/01 10:06:14;;;;;;;0.93;0.62;;;;;;;9.83;44.51;100748.22;4477807;31;33509;-82
2023/03/01 10:09:16;;;;;;;0.70;0.70;;;;;;;10.22;44.33;100743.66;4470595;31;32708;-82
2023/03/01 10:11:49;;;;;;;0.73;0.73;;;;;;;10.48;44.63;100748.22;4460396;32;31336;-81
2023/03/01 10:14:36;;;;;;;0.62;0.62;;;;;;;10.29;44.05;100739.97;4480390;31;32884;-82
2023/03/01 10:17:12;;;;;;;0.88;0.88;;;;;;;10.67;43.30;100732.72;4469583;31;34406;-81
2023/03/01 10:19:45;;;;;;;2.17;1.08;;;;;;;10.97;43.94;100730.97;4467544;31;33966;-81
2023/03/01 10:22:22;;;;;;;0.32;0.32;;;;;;;11.18;42.98;100719.72;4453711;31;33627;-81
2023/03/01 10:24:51;;;;;;;1.08;0.98;;;;;;;11.07;42.80;100715.69;4466294;32;32568;-82
2023/03/01 10:27:52;;;;;;;1.15;0.95;;;;;;;11.08;42.83;100712.13;4467565;31;32959;-81
2023/03/01 10:30:35;;;;;;;0.98;0.98;;;;;;;10.74;42.63;100707.87;4463254;31;32912;-81
2023/03/01 10:33:03;;;;;;;0.77;0.77;;;;;;;11.27;42.71;100705.34;4479640;31;32360;-81
2023/03/01 10:35:33;;;;;;;1.73;1.62;;;;;;;11.21;42.10;100708.19;4469890;31;33932;-81
2023/03/01 10:38:10;;;;;;;2.83;1.90;;;;;;;11.17;42.53;100701.28;4477532;31;34573;-81
2023/03/01 10:40:57;;;;;;;2.97;2.70;;;;;;;11.41;41.50;100704.91;4479301;31;33110;-82
2023/03/01 10:43:40;;;;;;;0.90;0.90;;;;;;;11.41;42.15;100705.75;4467483;31;33226;-81
2023/03/01 10:46:25;;;;;;;2.90;0.95;;;;;;;11.58;42.07;100704.31;4466115;31;32722;-82
2023/03/01 10:49:15;;;;;;;0.95;0.55;;;;;;;11.53;42.74;100684.19;4466846;32;32977;-82
2023/03/01 10:51:46;;;;;;;1.50;1.15;;;;;;;12.43;40.55;100682.78;4478856;31;33418;-81
2023/03/01 10:54:18;;;;;;;0.45;0.45;;;;;;;12.26;40.10;100691.37;4463791;32;30191;-81
2023/03/01 10:56:53;;;;;;;3.50;1.45;;;;;;;11.12;42.17;100682.91;4477634;31;34730;-81
2023/03/01 10:59:32;;;;;;;0.60;0.60;;;;;;;11.35;41.77;100679.53;4454391;32;33974;-82
2023/03/01 11:02:20;;;;;;;1.10;1.00;;;;;;;11.63;41.48;100670.63;4476054;31;33871;-81
2023/03/01 11:05:00;;;;;;;0.50;0.50;;;;;;;11.36;42.03;100664.53;4452219;31;33106;-81
2023/03/01 11:07:29;;;;;;;0.20;0.20;;;;;;;11.91;41.34;100671.44;4467997;31;33307;-82
2023/03/01 11:09:57;;;;;;;2.10;1.42;;;;;;;11.58;42.61;100678.72;4470372;32;32619;-82
2023/03/01 11:12:24;;;;;;;0.95;0.90;;;;;;;11.74;41.84;100671.16;4464360;31;33143;-82
2023/03/01 11:14:55;;;;;;;15.40;2.15;;;;;;;11.97;41.02;100663.31;4476225;31;33296;-82
2023/03/01 11:17:30;;;;;;;1.67;1.58;;;;;;;11.77;40.71;100660.44;4461401;31;34708;-82
2023/03/01 11:20:18;;;;;;;0.80;0.65;;;;;;;12.02;43.88;100664.00;4476639;31;33660;-82
2023/03/01 11:23:02;;;;;;;1.73;1.55;;;;;;;11.64;41.43;100664.47;4466466;31;33901;-82
2023/03/01 11:25:34;;;;;;;0.82;0.82;;;;;;;11.81;41.62;100656.78;4468225;31;32009;-82
2023/03/01 11:28:03;;;;;;;0.95;0.95;;;;;;;12.71;38.99;100649.97;4456850;31;34153;-82
2023/03/01 11:31:13;;;;;;;0.57;0.57;;;;;;;12.60;40.16;100642.44;4467463;31;33313;-82
2023/03/01 11:33:52;;;;;;;0.98;0.93;;;;;;;12.93;38.73;100642.03;4468890;31;33286;-82
2023/03/01 11:36:45;;;;;;;1.15;1.08;;;;;;;12.46;39.43;100635.00;4475692;31;33730;-82
2023/03/01 11:39:13;;;;;;;0.60;0.60;;;;;;;12.46;40.50;100645.59;4466598;32;32487;-82
2023/03/01 11:41:41;;;;;;;1.25;1.15;;;;;;;12.31;40.00;100646.19;4464572;32;31604;-82
2023/03/01 11:44:25;;;;;;;0.47;0.47;;;;;;;11.34;41.59;100656.63;4474160;31;33717;-82
2023/03/01 11:47:35;;;;;;;0.25;0.25;;;;;;;12.17;40.91;100643.19;4478830;31;33314;-82
2023/03/01 11:50:34;;;;;;;2.30;2.20;;;;;;;12.25;40.39;100635.84;4456862;32;33901;-82
2023/03/01 11:53:23;;;;;;;3.22;2.87;;;;;;;12.09;40.17;100645.25;4463265;31;34809;-82